sensor_id;sensor_type;location;lat;lon;timestamp;P1;durP1;ratioP1;P2;durP2;ratioP2
75892;SDS011;64572;50.950;3.676;2022-12-07T00:03:40;16.30;;;8.40;;
75892;SDS011;64572;50.950;3.676;2022-12-07T00:06:07;21.80;;;7.90;;
75892;SDS011;64572;50.950;3.676;2022-12-07T00:08:34;19.73;;;8.23;;
75892;SDS011;64572;50.950;3.676;2022-12-07T00:11:01;18.67;;;8.20;;
75892;SDS011;64572;50.950;3.676;2022-12-07T00:13:28;22.95;;;8.00;;
75892;SDS011;64572;50.950;3.676;2022-12-07T00:15:54;17.42;;;8.38;;
75892;SDS011;64572;50.950;3.676;2022-12-07T00:18:20;20.70;;;8.18;;
75892;SDS011;64572;50.950;3.676;2022-12-07T00:20:46;16.50;;;8.20;;
75892;SDS011;64572;50.950;3.676;2022-12-07T00:23:11;15.52;;;6.03;;
75892;SDS011;64572;50.950;3.676;2022-12-07T00:25:37;16.25;;;6.40;;
75892;SDS011;64572;50.950;3.676;2022-12-07T00:28:02;19.63;;;7.65;;
75892;SDS011;64572;50.950;3.676;2022-12-07T00:30:28;17.85;;;7.07;;
75892;SDS011;64572;50.950;3.676;2022-12-07T00:32:57;17.15;;;6.97;;
75892;SDS011;64572;50.950;3.676;2022-12-07T00:35:23;14.75;;;6.63;;
75892;SDS011;64572;50.950;3.676;2022-12-07T00:37:51;21.05;;;7.70;;
75892;SDS011;64572;50.950;3.676;2022-12-07T00:40:17;16.00;;;7.50;;
75892;SDS011;64572;50.950;3.676;2022-12-07T00:42:43;18.85;;;8.02;;
75892;SDS011;64572;50.950;3.676;2022-12-07T00:45:08;16.17;;;8.25;;
75892;SDS011;64572;50.950;3.676;2022-12-07T00:47:38;18.98;;;7.90;;
75892;SDS011;64572;50.950;3.676;2022-12-07T00:50:03;20.42;;;8.18;;
75892;SDS011;64572;50.950;3.676;2022-12-07T00:52:32;21.17;;;8.45;;
75892;SDS011;64572;50.950;3.676;2022-12-07T00:54:58;17.10;;;8.63;;
75892;SDS011;64572;50.950;3.676;2022-12-07T00:57:24;22.88;;;9.15;;
75892;SDS011;64572;50.950;3.676;2022-12-07T00:59:49;23.38;;;10.50;;
75892;SDS011;64572;50.950;3.676;2022-12-07T01:02:15;23.83;;;10.52;;
75892;SDS011;64572;50.950;3.676;2022-12-07T01:04:44;22.40;;;12.07;;
75892;SDS011;64572;50.950;3.676;2022-12-07T01:07:09;25.00;;;14.15;;
75892;SDS011;64572;50.950;3.676;2022-12-07T01:09:35;27.50;;;14.43;;
75892;SDS011;64572;50.950;3.676;2022-12-07T01:12:00;30.52;;;17.63;;
75892;SDS011;64572;50.950;3.676;2022-12-07T01:14:27;34.13;;;17.83;;
75892;SDS011;64572;50.950;3.676;2022-12-07T01:16:53;30.70;;;17.75;;
75892;SDS011;64572;50.950;3.676;2022-12-07T01:19:19;31.05;;;17.67;;
75892;SDS011;64572;50.950;3.676;2022-12-07T01:21:44;32.53;;;18.23;;
75892;SDS011;64572;50.950;3.676;2022-12-07T01:24:10;37.53;;;19.00;;
75892;SDS011;64572;50.950;3.676;2022-12-07T01:26:36;29.83;;;18.38;;
75892;SDS011;64572;50.950;3.676;2022-12-07T01:29:02;33.40;;;17.83;;
75892;SDS011;64572;50.950;3.676;2022-12-07T01:31:28;34.35;;;19.10;;
75892;SDS011;64572;50.950;3.676;2022-12-07T01:33:55;36.88;;;18.40;;
75892;SDS011;64572;50.950;3.676;2022-12-07T01:36:29;33.97;;;17.73;;
75892;SDS011;64572;50.950;3.676;2022-12-07T01:38:58;27.25;;;16.15;;
75892;SDS011;64572;50.950;3.676;2022-12-07T01:41:27;27.63;;;15.00;;
75892;SDS011;64572;50.950;3.676;2022-12-07T01:46:55;39.50;;;18.83;;
75892;SDS011;64572;50.950;3.676;2022-12-07T01:55:03;34.58;;;19.13;;
75892;SDS011;64572;50.950;3.676;2022-12-07T01:57:36;36.88;;;18.83;;
75892;SDS011;64572;50.950;3.676;2022-12-07T02:00:06;35.13;;;19.27;;
75892;SDS011;64572;50.950;3.676;2022-12-07T02:02:34;27.70;;;12.07;;
75892;SDS011;64572;50.950;3.676;2022-12-07T02:05:03;31.00;;;15.75;;
75892;SDS011;64572;50.950;3.676;2022-12-07T02:07:30;30.85;;;16.67;;
75892;SDS011;64572;50.950;3.676;2022-12-07T02:12:37;29.70;;;15.30;;
75892;SDS011;64572;50.950;3.676;2022-12-07T02:15:03;31.92;;;15.75;;
75892;SDS011;64572;50.950;3.676;2022-12-07T02:17:36;33.80;;;14.25;;
75892;SDS011;64572;50.950;3.676;2022-12-07T02:23:32;29.90;;;14.25;;
75892;SDS011;64572;50.950;3.676;2022-12-07T02:30:58;26.00;;;12.00;;
75892;SDS011;64572;50.950;3.676;2022-12-07T02:33:40;21.00;;;11.32;;
75892;SDS011;64572;50.950;3.676;2022-12-07T02:36:32;24.77;;;12.23;;
75892;SDS011;64572;50.950;3.676;2022-12-07T02:39:04;37.13;;;16.55;;
75892;SDS011;64572;50.950;3.676;2022-12-07T02:41:58;32.63;;;16.40;;
75892;SDS011;64572;50.950;3.676;2022-12-07T02:44:26;27.50;;;15.00;;
75892;SDS011;64572;50.950;3.676;2022-12-07T02:47:01;25.38;;;13.60;;
75892;SDS011;64572;50.950;3.676;2022-12-07T02:49:34;28.98;;;14.77;;
75892;SDS011;64572;50.950;3.676;2022-12-07T02:52:03;28.20;;;14.55;;
75892;SDS011;64572;50.950;3.676;2022-12-07T02:54:32;28.02;;;13.85;;
75892;SDS011;64572;50.950;3.676;2022-12-07T02:59:33;20.23;;;12.05;;
75892;SDS011;64572;50.950;3.676;2022-12-07T03:02:25;23.08;;;12.10;;
75892;SDS011;64572;50.950;3.676;2022-12-07T03:08:13;23.02;;;12.30;;
75892;SDS011;64572;50.950;3.676;2022-12-07T03:17:24;28.98;;;12.18;;
75892;SDS011;64572;50.950;3.676;2022-12-07T03:19:37;22.02;;;11.27;;
75892;SDS011;64572;50.950;3.676;2022-12-07T03:22:12;27.92;;;11.30;;
75892;SDS011;64572;50.950;3.676;2022-12-07T03:24:40;27.40;;;11.93;;
75892;SDS011;64572;50.950;3.676;2022-12-07T03:27:14;22.50;;;10.75;;
75892;SDS011;64572;50.950;3.676;2022-12-07T03:30:03;26.13;;;11.77;;
75892;SDS011;64572;50.950;3.676;2022-12-07T03:35:10;22.45;;;10.35;;
75892;SDS011;64572;50.950;3.676;2022-12-07T03:40:33;26.70;;;14.05;;
75892;SDS011;64572;50.950;3.676;2022-12-07T03:43:04;23.40;;;12.50;;
75892;SDS011;64572;50.950;3.676;2022-12-07T03:45:32;27.45;;;13.13;;
75892;SDS011;64572;50.950;3.676;2022-12-07T03:48:07;26.55;;;11.48;;
75892;SDS011;64572;50.950;3.676;2022-12-07T03:50:52;26.48;;;13.60;;
75892;SDS011;64572;50.950;3.676;2022-12-07T03:53:46;26.98;;;13.32;;
75892;SDS011;64572;50.950;3.676;2022-12-07T03:56:33;31.73;;;13.02;;
75892;SDS011;64572;50.950;3.676;2022-12-07T03:59:00;30.95;;;13.90;;
75892;SDS011;64572;50.950;3.676;2022-12-07T04:01:25;34.00;;;16.45;;
75892;SDS011;64572;50.950;3.676;2022-12-07T04:03:52;38.15;;;18.52;;
75892;SDS011;64572;50.950;3.676;2022-12-07T04:06:17;35.85;;;18.70;;
75892;SDS011;64572;50.950;3.676;2022-12-07T04:08:43;40.85;;;20.70;;
75892;SDS011;64572;50.950;3.676;2022-12-07T04:11:09;30.80;;;16.17;;
75892;SDS011;64572;50.950;3.676;2022-12-07T04:13:35;32.22;;;15.18;;
75892;SDS011;64572;50.950;3.676;2022-12-07T04:16:20;32.15;;;15.05;;
75892;SDS011;64572;50.950;3.676;2022-12-07T04:18:46;30.92;;;14.95;;
75892;SDS011;64572;50.950;3.676;2022-12-07T04:21:11;35.78;;;16.25;;
75892;SDS011;64572;50.950;3.676;2022-12-07T04:23:37;27.90;;;13.07;;
75892;SDS011;64572;50.950;3.676;2022-12-07T04:26:03;24.95;;;11.57;;
75892;SDS011;64572;50.950;3.676;2022-12-07T04:28:28;23.33;;;12.65;;
75892;SDS011;64572;50.950;3.676;2022-12-07T04:30:54;32.28;;;16.10;;
75892;SDS011;64572;50.950;3.676;2022-12-07T04:33:20;32.97;;;16.08;;
75892;SDS011;64572;50.950;3.676;2022-12-07T04:35:45;35.63;;;17.42;;
75892;SDS011;64572;50.950;3.676;2022-12-07T04:38:11;38.88;;;18.42;;
75892;SDS011;64572;50.950;3.676;2022-12-07T04:40:36;42.60;;;17.95;;
75892;SDS011;64572;50.950;3.676;2022-12-07T04:43:02;43.08;;;17.98;;
75892;SDS011;64572;50.950;3.676;2022-12-07T04:45:29;32.67;;;15.70;;
75892;SDS011;64572;50.950;3.676;2022-12-07T04:47:55;36.50;;;14.40;;
75892;SDS011;64572;50.950;3.676;2022-12-07T04:50:21;34.33;;;15.55;;
75892;SDS011;64572;50.950;3.676;2022-12-07T04:52:46;35.15;;;15.77;;
75892;SDS011;64572;50.950;3.676;2022-12-07T04:55:12;34.58;;;14.80;;
75892;SDS011;64572;50.950;3.676;2022-12-07T04:57:38;34.45;;;15.32;;
75892;SDS011;64572;50.950;3.676;2022-12-07T05:00:04;29.98;;;12.05;;
75892;SDS011;64572;50.950;3.676;2022-12-07T05:02:30;22.17;;;10.82;;
75892;SDS011;64572;50.950;3.676;2022-12-07T05:04:55;19.70;;;10.63;;
75892;SDS011;64572;50.950;3.676;2022-12-07T05:07:21;22.75;;;11.95;;
75892;SDS011;64572;50.950;3.676;2022-12-07T05:09:47;25.35;;;13.35;;
75892;SDS011;64572;50.950;3.676;2022-12-07T05:12:12;26.63;;;13.25;;
75892;SDS011;64572;50.950;3.676;2022-12-07T05:14:38;29.38;;;13.95;;
75892;SDS011;64572;50.950;3.676;2022-12-07T05:17:04;41.72;;;18.85;;
75892;SDS011;64572;50.950;3.676;2022-12-07T05:19:29;40.10;;;19.70;;
75892;SDS011;64572;50.950;3.676;2022-12-07T05:21:55;30.25;;;15.20;;
75892;SDS011;64572;50.950;3.676;2022-12-07T05:24:20;27.88;;;14.38;;
75892;SDS011;64572;50.950;3.676;2022-12-07T05:26:46;29.20;;;14.45;;
75892;SDS011;64572;50.950;3.676;2022-12-07T05:29:13;30.65;;;13.60;;
75892;SDS011;64572;50.950;3.676;2022-12-07T05:31:40;23.63;;;11.82;;
75892;SDS011;64572;50.950;3.676;2022-12-07T05:34:06;22.75;;;11.88;;
75892;SDS011;64572;50.950;3.676;2022-12-07T05:36:32;34.20;;;15.43;;
75892;SDS011;64572;50.950;3.676;2022-12-07T05:39:01;105.88;;;18.50;;
75892;SDS011;64572;50.950;3.676;2022-12-07T05:41:27;30.73;;;13.00;;
75892;SDS011;64572;50.950;3.676;2022-12-07T05:44:11;22.63;;;11.07;;
75892;SDS011;64572;50.950;3.676;2022-12-07T05:46:37;22.27;;;9.40;;
75892;SDS011;64572;50.950;3.676;2022-12-07T05:49:02;20.40;;;9.02;;
75892;SDS011;64572;50.950;3.676;2022-12-07T05:51:28;22.38;;;10.98;;
75892;SDS011;64572;50.950;3.676;2022-12-07T05:53:54;30.27;;;8.43;;
75892;SDS011;64572;50.950;3.676;2022-12-07T05:56:19;26.88;;;11.25;;
75892;SDS011;64572;50.950;3.676;2022-12-07T05:58:45;24.45;;;11.07;;
75892;SDS011;64572;50.950;3.676;2022-12-07T06:01:30;34.70;;;14.50;;
75892;SDS011;64572;50.950;3.676;2022-12-07T06:03:55;22.58;;;11.50;;
75892;SDS011;64572;50.950;3.676;2022-12-07T06:06:21;22.65;;;11.25;;
75892;SDS011;64572;50.950;3.676;2022-12-07T06:08:47;20.75;;;8.65;;
75892;SDS011;64572;50.950;3.676;2022-12-07T06:11:13;24.60;;;9.45;;
75892;SDS011;64572;50.950;3.676;2022-12-07T06:13:57;19.58;;;8.60;;
75892;SDS011;64572;50.950;3.676;2022-12-07T06:16:22;18.38;;;7.63;;
75892;SDS011;64572;50.950;3.676;2022-12-07T06:18:48;21.20;;;8.45;;
75892;SDS011;64572;50.950;3.676;2022-12-07T06:21:14;23.92;;;10.80;;
75892;SDS011;64572;50.950;3.676;2022-12-07T06:23:39;24.50;;;11.25;;
75892;SDS011;64572;50.950;3.676;2022-12-07T06:26:05;51.08;;;21.83;;
75892;SDS011;64572;50.950;3.676;2022-12-07T06:28:31;43.40;;;19.25;;
75892;SDS011;64572;50.950;3.676;2022-12-07T06:30:57;24.45;;;12.90;;
75892;SDS011;64572;50.950;3.676;2022-12-07T06:33:24;26.10;;;13.15;;
75892;SDS011;64572;50.950;3.676;2022-12-07T06:35:50;42.90;;;19.58;;
75892;SDS011;64572;50.950;3.676;2022-12-07T06:38:16;32.28;;;14.63;;
75892;SDS011;64572;50.950;3.676;2022-12-07T06:40:42;25.00;;;9.35;;
75892;SDS011;64572;50.950;3.676;2022-12-07T06:43:07;24.65;;;10.50;;
75892;SDS011;64572;50.950;3.676;2022-12-07T06:45:33;38.28;;;17.50;;
75892;SDS011;64572;50.950;3.676;2022-12-07T06:47:59;35.15;;;15.57;;
75892;SDS011;64572;50.950;3.676;2022-12-07T06:50:24;38.72;;;17.00;;
75892;SDS011;64572;50.950;3.676;2022-12-07T06:52:51;34.80;;;16.48;;
75892;SDS011;64572;50.950;3.676;2022-12-07T06:55:16;32.22;;;11.00;;
75892;SDS011;64572;50.950;3.676;2022-12-07T06:57:42;32.60;;;14.10;;
75892;SDS011;64572;50.950;3.676;2022-12-07T07:00:08;30.90;;;13.02;;
75892;SDS011;64572;50.950;3.676;2022-12-07T07:02:34;26.58;;;13.57;;
75892;SDS011;64572;50.950;3.676;2022-12-07T07:05:00;23.75;;;11.60;;
75892;SDS011;64572;50.950;3.676;2022-12-07T07:07:26;26.77;;;11.45;;
75892;SDS011;64572;50.950;3.676;2022-12-07T07:09:51;31.08;;;16.92;;
75892;SDS011;64572;50.950;3.676;2022-12-07T07:12:17;31.27;;;17.52;;
75892;SDS011;64572;50.950;3.676;2022-12-07T07:14:43;37.70;;;17.52;;
75892;SDS011;64572;50.950;3.676;2022-12-07T07:17:08;31.73;;;14.77;;
75892;SDS011;64572;50.950;3.676;2022-12-07T07:19:34;31.65;;;15.05;;
75892;SDS011;64572;50.950;3.676;2022-12-07T07:22:00;29.40;;;13.18;;
75892;SDS011;64572;50.950;3.676;2022-12-07T07:24:26;33.83;;;14.02;;
75892;SDS011;64572;50.950;3.676;2022-12-07T07:26:51;25.60;;;12.75;;
75892;SDS011;64572;50.950;3.676;2022-12-07T07:29:17;37.05;;;16.38;;
75892;SDS011;64572;50.950;3.676;2022-12-07T07:31:43;37.55;;;16.27;;
75892;SDS011;64572;50.950;3.676;2022-12-07T07:34:09;48.80;;;16.85;;
75892;SDS011;64572;50.950;3.676;2022-12-07T07:36:34;31.83;;;12.43;;
75892;SDS011;64572;50.950;3.676;2022-12-07T07:39:00;28.98;;;12.13;;
75892;SDS011;64572;50.950;3.676;2022-12-07T07:41:26;28.50;;;10.35;;
75892;SDS011;64572;50.950;3.676;2022-12-07T07:43:51;30.98;;;13.07;;
75892;SDS011;64572;50.950;3.676;2022-12-07T07:46:17;28.13;;;12.82;;
75892;SDS011;64572;50.950;3.676;2022-12-07T07:48:43;34.15;;;14.05;;
75892;SDS011;64572;50.950;3.676;2022-12-07T07:51:08;33.97;;;16.05;;
75892;SDS011;64572;50.950;3.676;2022-12-07T07:53:34;40.63;;;18.88;;
75892;SDS011;64572;50.950;3.676;2022-12-07T07:56:00;44.40;;;19.27;;
75892;SDS011;64572;50.950;3.676;2022-12-07T07:58:25;32.95;;;17.48;;
75892;SDS011;64572;50.950;3.676;2022-12-07T08:00:51;31.85;;;14.25;;
75892;SDS011;64572;50.950;3.676;2022-12-07T08:03:18;44.60;;;20.42;;
75892;SDS011;64572;50.950;3.676;2022-12-07T08:05:44;34.63;;;15.40;;
75892;SDS011;64572;50.950;3.676;2022-12-07T08:08:09;30.30;;;13.30;;
75892;SDS011;64572;50.950;3.676;2022-12-07T08:10:35;31.80;;;12.45;;
75892;SDS011;64572;50.950;3.676;2022-12-07T08:13:02;21.13;;;9.18;;
75892;SDS011;64572;50.950;3.676;2022-12-07T08:15:38;26.88;;;8.93;;
75892;SDS011;64572;50.950;3.676;2022-12-07T08:18:06;21.88;;;7.97;;
75892;SDS011;64572;50.950;3.676;2022-12-07T08:20:32;22.25;;;7.05;;
75892;SDS011;64572;50.950;3.676;2022-12-07T08:22:59;18.50;;;7.60;;
75892;SDS011;64572;50.950;3.676;2022-12-07T08:25:25;25.02;;;9.00;;
75892;SDS011;64572;50.950;3.676;2022-12-07T08:27:51;23.33;;;10.05;;
75892;SDS011;64572;50.950;3.676;2022-12-07T08:30:17;22.27;;;9.15;;
75892;SDS011;64572;50.950;3.676;2022-12-07T08:32:44;23.58;;;9.13;;
75892;SDS011;64572;50.950;3.676;2022-12-07T08:35:10;25.85;;;9.38;;
75892;SDS011;64572;50.950;3.676;2022-12-07T08:37:36;29.70;;;10.38;;
75892;SDS011;64572;50.950;3.676;2022-12-07T08:40:03;27.33;;;11.00;;
75892;SDS011;64572;50.950;3.676;2022-12-07T08:42:29;27.67;;;11.73;;
75892;SDS011;64572;50.950;3.676;2022-12-07T08:45:03;25.85;;;10.57;;
75892;SDS011;64572;50.950;3.676;2022-12-07T08:47:30;27.63;;;9.55;;
75892;SDS011;64572;50.950;3.676;2022-12-07T08:49:57;26.23;;;9.25;;
75892;SDS011;64572;50.950;3.676;2022-12-07T08:52:28;22.50;;;9.50;;
75892;SDS011;64572;50.950;3.676;2022-12-07T08:54:55;23.70;;;9.48;;
75892;SDS011;64572;50.950;3.676;2022-12-07T08:57:21;26.00;;;10.75;;
75892;SDS011;64572;50.950;3.676;2022-12-07T08:59:47;25.85;;;11.40;;
75892;SDS011;64572;50.950;3.676;2022-12-07T09:02:12;33.10;;;14.95;;
75892;SDS011;64572;50.950;3.676;2022-12-07T09:04:38;23.65;;;9.20;;
75892;SDS011;64572;50.950;3.676;2022-12-07T09:07:03;21.58;;;8.23;;
75892;SDS011;64572;50.950;3.676;2022-12-07T09:09:29;23.40;;;8.65;;
75892;SDS011;64572;50.950;3.676;2022-12-07T09:11:55;28.75;;;9.68;;
75892;SDS011;64572;50.950;3.676;2022-12-07T09:14:21;30.38;;;10.65;;
75892;SDS011;64572;50.950;3.676;2022-12-07T09:16:47;21.33;;;10.07;;
75892;SDS011;64572;50.950;3.676;2022-12-07T09:19:13;23.20;;;10.20;;
75892;SDS011;64572;50.950;3.676;2022-12-07T09:21:38;24.02;;;8.48;;
75892;SDS011;64572;50.950;3.676;2022-12-07T09:24:04;20.60;;;8.23;;
75892;SDS011;64572;50.950;3.676;2022-12-07T09:26:30;28.70;;;9.75;;
75892;SDS011;64572;50.950;3.676;2022-12-07T09:28:56;23.23;;;7.75;;
75892;SDS011;64572;50.950;3.676;2022-12-07T09:31:21;21.20;;;8.13;;
75892;SDS011;64572;50.950;3.676;2022-12-07T09:33:52;21.38;;;7.18;;
75892;SDS011;64572;50.950;3.676;2022-12-07T09:36:24;22.55;;;7.38;;
75892;SDS011;64572;50.950;3.676;2022-12-07T09:38:51;28.40;;;7.68;;
75892;SDS011;64572;50.950;3.676;2022-12-07T09:41:17;17.95;;;6.90;;
75892;SDS011;64572;50.950;3.676;2022-12-07T09:43:43;16.23;;;6.55;;
75892;SDS011;64572;50.950;3.676;2022-12-07T09:46:13;17.33;;;6.40;;
75892;SDS011;64572;50.950;3.676;2022-12-07T09:48:40;16.95;;;6.32;;
75892;SDS011;64572;50.950;3.676;2022-12-07T09:51:18;22.48;;;7.07;;
75892;SDS011;64572;50.950;3.676;2022-12-07T09:53:45;20.00;;;7.13;;
75892;SDS011;64572;50.950;3.676;2022-12-07T09:56:19;26.40;;;8.23;;
75892;SDS011;64572;50.950;3.676;2022-12-07T09:58:46;18.35;;;7.20;;
75892;SDS011;64572;50.950;3.676;2022-12-07T10:01:13;19.88;;;8.02;;
75892;SDS011;64572;50.950;3.676;2022-12-07T10:06:35;21.65;;;7.53;;
75892;SDS011;64572;50.950;3.676;2022-12-07T10:09:01;26.08;;;7.45;;
75892;SDS011;64572;50.950;3.676;2022-12-07T10:11:27;25.05;;;7.78;;
75892;SDS011;64572;50.950;3.676;2022-12-07T10:13:53;25.75;;;9.02;;
75892;SDS011;64572;50.950;3.676;2022-12-07T10:19:16;31.88;;;11.45;;
75892;SDS011;64572;50.950;3.676;2022-12-07T10:22:09;23.98;;;9.95;;
75892;SDS011;64572;50.950;3.676;2022-12-07T10:24:41;24.27;;;7.80;;
75892;SDS011;64572;50.950;3.676;2022-12-07T10:27:41;24.73;;;6.95;;
75892;SDS011;64572;50.950;3.676;2022-12-07T10:30:01;19.80;;;7.28;;
75892;SDS011;64572;50.950;3.676;2022-12-07T10:32:33;20.95;;;6.70;;
75892;SDS011;64572;50.950;3.676;2022-12-07T10:35:34;17.58;;;6.32;;
75892;SDS011;64572;50.950;3.676;2022-12-07T10:37:55;16.65;;;5.60;;
75892;SDS011;64572;50.950;3.676;2022-12-07T10:43:07;17.42;;;6.75;;
75892;SDS011;64572;50.950;3.676;2022-12-07T10:59:29;23.15;;;6.30;;
75892;SDS011;64572;50.950;3.676;2022-12-07T11:05:13;19.77;;;6.57;;
75892;SDS011;64572;50.950;3.676;2022-12-07T11:13:18;21.90;;;5.40;;
75892;SDS011;64572;50.950;3.676;2022-12-07T11:18:27;17.55;;;5.65;;
75892;SDS011;64572;50.950;3.676;2022-12-07T11:21:13;21.30;;;5.75;;
75892;SDS011;64572;50.950;3.676;2022-12-07T11:29:19;27.70;;;6.57;;
75892;SDS011;64572;50.950;3.676;2022-12-07T11:37:28;20.20;;;4.72;;
75892;SDS011;64572;50.950;3.676;2022-12-07T11:40:05;18.48;;;5.05;;
75892;SDS011;64572;50.950;3.676;2022-12-07T11:42:51;17.77;;;5.30;;
75892;SDS011;64572;50.950;3.676;2022-12-07T11:45:24;17.13;;;5.45;;
75892;SDS011;64572;50.950;3.676;2022-12-07T11:48:16;16.25;;;5.25;;
75892;SDS011;64572;50.950;3.676;2022-12-07T11:50:42;15.25;;;5.18;;
75892;SDS011;64572;50.950;3.676;2022-12-07T11:53:24;22.63;;;5.43;;
75892;SDS011;64572;50.950;3.676;2022-12-07T11:55:57;16.83;;;4.18;;
75892;SDS011;64572;50.950;3.676;2022-12-07T12:00:54;16.30;;;3.50;;
75892;SDS011;64572;50.950;3.676;2022-12-07T12:03:34;11.52;;;3.15;;
75892;SDS011;64572;50.950;3.676;2022-12-07T12:06:03;8.15;;;2.08;;
75892;SDS011;64572;50.950;3.676;2022-12-07T12:08:30;8.02;;;2.10;;
75892;SDS011;64572;50.950;3.676;2022-12-07T12:11:15;8.90;;;3.45;;
75892;SDS011;64572;50.950;3.676;2022-12-07T12:19:32;10.50;;;2.90;;
75892;SDS011;64572;50.950;3.676;2022-12-07T12:22:14;12.63;;;3.28;;
75892;SDS011;64572;50.950;3.676;2022-12-07T12:24:43;14.93;;;2.53;;
75892;SDS011;64572;50.950;3.676;2022-12-07T12:27:30;12.02;;;2.80;;
75892;SDS011;64572;50.950;3.676;2022-12-07T12:30:00;9.30;;;2.70;;
75892;SDS011;64572;50.950;3.676;2022-12-07T12:32:43;12.70;;;2.50;;
75892;SDS011;64572;50.950;3.676;2022-12-07T12:35:27;9.85;;;2.45;;
75892;SDS011;64572;50.950;3.676;2022-12-07T12:40:55;6.88;;;2.28;;
75892;SDS011;64572;50.950;3.676;2022-12-07T12:44:08;6.88;;;2.40;;
75892;SDS011;64572;50.950;3.676;2022-12-07T12:51:52;11.32;;;2.63;;
75892;SDS011;64572;50.950;3.676;2022-12-07T12:57:09;10.13;;;2.97;;
75892;SDS011;64572;50.950;3.676;2022-12-07T12:59:38;6.90;;;2.08;;
75892;SDS011;64572;50.950;3.676;2022-12-07T13:12:55;4.80;;;1.30;;
75892;SDS011;64572;50.950;3.676;2022-12-07T13:15:35;7.70;;;2.00;;
75892;SDS011;64572;50.950;3.676;2022-12-07T13:23:26;5.72;;;1.80;;
75892;SDS011;64572;50.950;3.676;2022-12-07T13:26:38;7.25;;;1.75;;
75892;SDS011;64572;50.950;3.676;2022-12-07T13:29:10;5.65;;;1.50;;
75892;SDS011;64572;50.950;3.676;2022-12-07T13:31:55;7.40;;;1.80;;
75892;SDS011;64572;50.950;3.676;2022-12-07T13:34:35;4.10;;;1.50;;
75892;SDS011;64572;50.950;3.676;2022-12-07T13:39:56;7.13;;;1.60;;
75892;SDS011;64572;50.950;3.676;2022-12-07T13:44:51;6.23;;;1.60;;
75892;SDS011;64572;50.950;3.676;2022-12-07T13:47:18;5.53;;;1.80;;
75892;SDS011;64572;50.950;3.676;2022-12-07T13:49:58;8.20;;;1.80;;
75892;SDS011;64572;50.950;3.676;2022-12-07T13:52:25;3.53;;;1.55;;
75892;SDS011;64572;50.950;3.676;2022-12-07T13:57:30;8.23;;;2.03;;
75892;SDS011;64572;50.950;3.676;2022-12-07T14:00:02;6.30;;;1.70;;
75892;SDS011;64572;50.950;3.676;2022-12-07T14:02:31;9.48;;;2.67;;
75892;SDS011;64572;50.950;3.676;2022-12-07T14:05:14;12.77;;;3.35;;
75892;SDS011;64572;50.950;3.676;2022-12-07T14:07:48;15.13;;;3.92;;
75892;SDS011;64572;50.950;3.676;2022-12-07T14:10:30;7.75;;;1.98;;
75892;SDS011;64572;50.950;3.676;2022-12-07T14:13:02;8.70;;;2.95;;
75892;SDS011;64572;50.950;3.676;2022-12-07T14:15:49;10.95;;;2.30;;
75892;SDS011;64572;50.950;3.676;2022-12-07T14:21:04;10.57;;;2.50;;
75892;SDS011;64572;50.950;3.676;2022-12-07T14:23:39;9.93;;;2.30;;
75892;SDS011;64572;50.950;3.676;2022-12-07T14:26:15;12.10;;;2.20;;
75892;SDS011;64572;50.950;3.676;2022-12-07T14:28:45;8.82;;;2.30;;
75892;SDS011;64572;50.950;3.676;2022-12-07T14:31:13;12.07;;;2.63;;
75892;SDS011;64572;50.950;3.676;2022-12-07T14:33:40;8.43;;;2.28;;
75892;SDS011;64572;50.950;3.676;2022-12-07T14:36:08;11.75;;;2.60;;
75892;SDS011;64572;50.950;3.676;2022-12-07T14:38:35;11.68;;;2.42;;
75892;SDS011;64572;50.950;3.676;2022-12-07T14:41:01;7.50;;;2.20;;
75892;SDS011;64572;50.950;3.676;2022-12-07T14:43:45;8.85;;;2.20;;
75892;SDS011;64572;50.950;3.676;2022-12-07T14:46:11;10.00;;;2.30;;
75892;SDS011;64572;50.950;3.676;2022-12-07T14:48:36;11.57;;;2.17;;
75892;SDS011;64572;50.950;3.676;2022-12-07T14:51:02;8.13;;;1.70;;
75892;SDS011;64572;50.950;3.676;2022-12-07T14:53:29;7.13;;;1.77;;
75892;SDS011;64572;50.950;3.676;2022-12-07T14:56:00;8.70;;;1.70;;
75892;SDS011;64572;50.950;3.676;2022-12-07T14:58:27;9.20;;;1.50;;
75892;SDS011;64572;50.950;3.676;2022-12-07T15:00:52;7.15;;;1.83;;
75892;SDS011;64572;50.950;3.676;2022-12-07T15:03:18;10.85;;;1.83;;
75892;SDS011;64572;50.950;3.676;2022-12-07T15:05:44;9.90;;;1.90;;
75892;SDS011;64572;50.950;3.676;2022-12-07T15:08:12;10.57;;;2.95;;
75892;SDS011;64572;50.950;3.676;2022-12-07T15:10:39;11.88;;;2.70;;
75892;SDS011;64572;50.950;3.676;2022-12-07T15:13:05;14.50;;;2.90;;
75892;SDS011;64572;50.950;3.676;2022-12-07T15:15:49;10.80;;;2.20;;
75892;SDS011;64572;50.950;3.676;2022-12-07T15:18:17;8.43;;;2.40;;
75892;SDS011;64572;50.950;3.676;2022-12-07T15:20:44;13.10;;;2.47;;
75892;SDS011;64572;50.950;3.676;2022-12-07T15:23:10;9.88;;;2.30;;
75892;SDS011;64572;50.950;3.676;2022-12-07T15:25:36;11.50;;;2.38;;
75892;SDS011;64572;50.950;3.676;2022-12-07T15:28:05;9.93;;;2.63;;
75892;SDS011;64572;50.950;3.676;2022-12-07T15:30:31;11.27;;;2.60;;
75892;SDS011;64572;50.950;3.676;2022-12-07T15:32:56;12.45;;;2.58;;
75892;SDS011;64572;50.950;3.676;2022-12-07T15:35:22;12.25;;;2.90;;
75892;SDS011;64572;50.950;3.676;2022-12-07T15:37:48;14.63;;;3.13;;
75892;SDS011;64572;50.950;3.676;2022-12-07T15:40:14;14.75;;;3.10;;
75892;SDS011;64572;50.950;3.676;2022-12-07T15:42:40;13.80;;;3.58;;
75892;SDS011;64572;50.950;3.676;2022-12-07T15:45:07;10.70;;;2.90;;
75892;SDS011;64572;50.950;3.676;2022-12-07T15:47:37;14.23;;;4.13;;
75892;SDS011;64572;50.950;3.676;2022-12-07T15:50:09;19.02;;;6.30;;
75892;SDS011;64572;50.950;3.676;2022-12-07T15:52:37;19.98;;;6.50;;
75892;SDS011;64572;50.950;3.676;2022-12-07T15:55:03;19.20;;;5.88;;
75892;SDS011;64572;50.950;3.676;2022-12-07T15:57:30;16.92;;;5.10;;
75892;SDS011;64572;50.950;3.676;2022-12-07T15:59:56;17.33;;;5.38;;
75892;SDS011;64572;50.950;3.676;2022-12-07T16:02:22;19.08;;;5.90;;
75892;SDS011;64572;50.950;3.676;2022-12-07T16:04:49;18.85;;;5.20;;
75892;SDS011;64572;50.950;3.676;2022-12-07T16:07:15;18.17;;;4.90;;
75892;SDS011;64572;50.950;3.676;2022-12-07T16:09:43;15.98;;;4.90;;
75892;SDS011;64572;50.950;3.676;2022-12-07T16:12:09;14.38;;;4.72;;
75892;SDS011;64572;50.950;3.676;2022-12-07T16:14:36;17.30;;;5.18;;
75892;SDS011;64572;50.950;3.676;2022-12-07T16:17:02;16.45;;;5.03;;
75892;SDS011;64572;50.950;3.676;2022-12-07T16:19:29;18.35;;;5.68;;
75892;SDS011;64572;50.950;3.676;2022-12-07T16:21:55;16.67;;;5.90;;
75892;SDS011;64572;50.950;3.676;2022-12-07T16:24:22;16.85;;;5.70;;
75892;SDS011;64572;50.950;3.676;2022-12-07T16:26:48;21.75;;;5.90;;
75892;SDS011;64572;50.950;3.676;2022-12-07T16:29:14;17.17;;;6.10;;
75892;SDS011;64572;50.950;3.676;2022-12-07T16:31:41;14.82;;;5.25;;
75892;SDS011;64572;50.950;3.676;2022-12-07T16:34:07;17.95;;;6.95;;
75892;SDS011;64572;50.950;3.676;2022-12-07T16:36:34;19.73;;;6.65;;
75892;SDS011;64572;50.950;3.676;2022-12-07T16:38:59;17.15;;;6.45;;
75892;SDS011;64572;50.950;3.676;2022-12-07T16:41:26;17.58;;;5.47;;
75892;SDS011;64572;50.950;3.676;2022-12-07T16:43:51;18.38;;;7.57;;
75892;SDS011;64572;50.950;3.676;2022-12-07T16:46:17;19.83;;;5.95;;
75892;SDS011;64572;50.950;3.676;2022-12-07T16:48:43;16.08;;;6.35;;
75892;SDS011;64572;50.950;3.676;2022-12-07T16:51:10;15.85;;;6.20;;
75892;SDS011;64572;50.950;3.676;2022-12-07T16:53:38;19.10;;;6.40;;